createdAt,value
2022-11-28T00:00:06.429Z,7.66
2022-11-28T00:05:29.313Z,9.35
2022-11-28T00:10:32.156Z,9.91
2022-11-28T00:15:34.916Z,8.44
2022-11-28T00:20:37.715Z,7.57
2022-11-28T00:25:40.659Z,8.94
2022-11-28T00:30:43.353Z,9.07
2022-11-28T00:35:46.169Z,9.26
2022-11-28T00:40:48.929Z,8.83
2022-11-28T00:45:52.429Z,7.05
2022-11-28T00:50:56.163Z,7.79
2022-11-28T00:55:58.901Z,8.19
2022-11-28T01:01:08.739Z,8.28
2022-11-28T01:06:12.423Z,8.32
2022-11-28T01:11:15.339Z,8.63
2022-11-28T01:16:18.147Z,8.98
2022-11-28T01:21:21.400Z,9.47
2022-11-28T01:26:27.051Z,9.15
2022-11-28T01:31:30.901Z,7.25
2022-11-28T01:36:33.691Z,8.00
2022-11-28T01:41:36.477Z,9.11
2022-11-28T01:46:39.881Z,9.46
2022-11-28T01:51:48.932Z,7.95
2022-11-28T02:11:17.890Z,8.36
2022-11-28T02:16:42.959Z,9.62
2022-11-28T02:21:58.167Z,9.44
2022-11-28T02:27:35.536Z,7.18
2022-11-28T02:33:21.849Z,7.41
2022-11-28T02:38:59.840Z,9.20
2022-11-28T02:44:19.165Z,9.29
2022-11-28T02:49:22.672Z,7.04
2022-11-28T02:54:27.664Z,7.77
2022-11-28T02:59:39.650Z,8.55
2022-11-28T03:04:54.660Z,8.82
2022-11-28T03:10:20.990Z,9.34
2022-11-28T03:15:31.469Z,7.33
2022-11-28T03:20:47.483Z,7.48
2022-11-28T03:26:01.884Z,8.77
2022-11-28T03:31:09.972Z,9.29
2022-11-28T03:36:21.367Z,7.60
2022-11-28T03:41:33.509Z,7.46
2022-11-28T03:46:41.260Z,8.22
2022-11-28T03:51:54.584Z,8.49
2022-11-28T03:57:00.959Z,8.37
2022-11-28T04:02:27.269Z,8.39
2022-11-28T04:07:36.003Z,8.11
2022-11-28T04:13:04.784Z,8.00
2022-11-28T04:18:40.353Z,8.41
2022-11-28T04:23:45.765Z,8.39
2022-11-28T04:28:50.849Z,8.17
2022-11-28T04:34:00.394Z,8.17
2022-11-28T04:39:06.753Z,8.07
2022-11-28T04:44:44.406Z,8.15
2022-11-28T04:49:47.524Z,8.13
2022-11-28T04:55:12.146Z,8.69
2022-11-28T05:00:18.329Z,8.24
2022-11-28T05:05:25.396Z,6.56
2022-11-28T05:10:28.739Z,7.67
2022-11-28T05:15:31.607Z,8.15
2022-11-28T05:20:35.138Z,8.65
2022-11-28T05:25:40.087Z,7.96
2022-11-28T05:30:42.787Z,5.77
2022-11-28T05:35:45.616Z,6.35
2022-11-28T05:40:49.214Z,7.39
2022-11-28T05:45:53.305Z,7.77
2022-11-28T05:50:56.679Z,8.36
2022-11-28T05:55:59.965Z,8.72
2022-11-28T06:01:20.942Z,7.22
2022-11-28T06:06:24.618Z,4.97
2022-11-28T06:11:29.911Z,5.48
2022-11-28T06:16:33.243Z,6.63
2022-11-28T06:21:36.323Z,7.20
2022-11-28T06:26:39.222Z,7.92
2022-11-28T06:31:42.063Z,7.86
2022-11-28T06:36:45.342Z,7.78
2022-11-28T06:41:48.109Z,7.56
2022-11-28T06:46:50.960Z,7.32
2022-11-28T06:51:53.847Z,7.27
2022-11-28T06:56:56.957Z,7.27
2022-11-28T07:02:07.421Z,7.09
2022-11-28T07:07:15.067Z,7.07
2022-11-28T07:12:19.640Z,7.29
2022-11-28T07:17:23.215Z,7.09
2022-11-28T07:22:26.019Z,7.56
2022-11-28T07:27:28.762Z,7.60
2022-11-28T07:32:31.620Z,7.55
2022-11-28T07:37:34.729Z,7.54
2022-11-28T07:42:37.531Z,7.60
2022-11-28T07:47:40.265Z,8.18
2022-11-28T07:52:43.135Z,8.11
2022-11-28T07:57:45.858Z,7.99
2022-11-28T08:02:48.755Z,7.92
2022-11-28T08:07:51.895Z,7.41
2022-11-28T08:12:54.982Z,7.56
2022-11-28T08:17:58.009Z,7.72
2022-11-28T08:23:01.061Z,7.26
2022-11-28T08:28:04.102Z,7.25
2022-11-28T08:33:06.872Z,7.30
2022-11-28T08:38:09.953Z,7.15
2022-11-28T08:43:13.300Z,7.35
2022-11-28T08:48:16.104Z,7.27
2022-11-28T08:53:19.232Z,7.28
2022-11-28T08:58:22.016Z,6.81
2022-11-28T09:03:24.882Z,6.83
2022-11-28T09:08:27.745Z,6.97
2022-11-28T09:13:30.521Z,7.19
2022-11-28T09:18:33.530Z,7.22
2022-11-28T09:23:37.801Z,7.09
2022-11-28T09:28:40.984Z,7.58
2022-11-28T09:33:45.235Z,7.62
2022-11-28T09:38:48.757Z,7.98
2022-11-28T09:43:55.108Z,8.10
2022-11-28T09:49:02.253Z,8.06
2022-11-28T09:54:34.817Z,7.84
2022-11-28T09:59:37.578Z,7.92
2022-11-28T10:04:55.490Z,8.20
2022-11-28T10:10:42.224Z,8.10
2022-11-28T10:16:21.096Z,8.14
2022-11-28T10:21:43.432Z,8.85
2022-11-28T10:26:54.516Z,9.24
2022-11-28T10:32:02.685Z,9.10
2022-11-28T10:37:10.894Z,8.17
2022-11-28T10:42:43.369Z,8.93
2022-11-28T10:47:49.350Z,8.72
2022-11-28T10:53:01.871Z,7.51
2022-11-28T10:58:25.975Z,8.76
2022-11-28T11:03:31.313Z,9.02
2022-11-28T11:08:36.941Z,8.94
2022-11-28T11:14:03.563Z,9.08
2022-11-28T11:19:06.292Z,7.56
2022-11-28T11:24:19.317Z,7.97
2022-11-28T11:29:31.086Z,8.79
2022-11-28T11:34:44.304Z,9.27
2022-11-28T11:39:52.293Z,8.24
2022-11-28T11:44:56.421Z,8.15
2022-11-28T11:50:06.507Z,8.96
2022-11-28T11:55:16.918Z,9.34
2022-11-28T12:00:22.808Z,7.79
2022-11-28T12:06:12.582Z,7.98
2022-11-28T12:11:50.475Z,9.39
2022-11-28T12:17:47.413Z,8.37
2022-11-28T12:23:17.588Z,7.96
2022-11-28T12:28:45.932Z,8.56
2022-11-28T12:34:21.049Z,8.52
2022-11-28T12:39:46.161Z,8.60
2022-11-28T12:45:17.124Z,8.47
2022-11-28T12:50:50.362Z,8.41
2022-11-28T12:56:32.763Z,8.11
2022-11-28T13:01:52.765Z,8.22
2022-11-28T13:07:23.899Z,8.33
2022-11-28T13:12:43.562Z,8.80
2022-11-28T13:18:05.604Z,9.23
2022-11-28T13:23:11.366Z,9.33
2022-11-28T13:28:29.820Z,8.60
2022-11-28T13:33:38.504Z,7.50
2022-11-28T13:39:04.861Z,8.61
2022-11-28T13:44:22.359Z,8.58
2022-11-28T13:49:27.477Z,9.24
2022-11-28T13:54:30.243Z,8.55
2022-11-28T13:59:34.384Z,7.34
2022-11-28T14:04:44.509Z,7.86
2022-11-28T14:09:52.313Z,8.02
2022-11-28T14:15:29.399Z,8.04
2022-11-28T14:20:57.376Z,7.98
2022-11-28T14:26:00.727Z,8.18
2022-11-28T14:31:12.791Z,8.04
2022-11-28T14:36:26.587Z,6.50
2022-11-28T14:41:29.328Z,7.11
2022-11-28T14:46:32.843Z,7.69
2022-11-28T14:51:48.180Z,8.05
2022-11-28T14:56:56.666Z,8.02
2022-11-28T15:02:11.447Z,7.89
2022-11-28T15:07:50.142Z,8.03
2022-11-28T15:13:27.191Z,8.25
2022-11-28T15:18:31.067Z,7.58
2022-11-28T15:23:37.045Z,6.61
2022-11-28T15:28:39.847Z,7.20
2022-11-28T15:33:42.622Z,7.54
2022-11-28T15:38:45.481Z,7.39
2022-11-28T15:43:48.770Z,7.60
2022-11-28T15:48:52.852Z,7.62
2022-11-28T15:53:56.525Z,7.29
2022-11-28T15:58:59.272Z,7.34
2022-11-28T16:04:15.270Z,7.66
2022-11-28T16:09:18.032Z,8.05
2022-11-28T16:14:44.723Z,8.24
2022-11-28T16:19:51.290Z,8.22
2022-11-28T16:24:55.621Z,7.79
2022-11-28T16:29:59.428Z,7.65
2022-11-28T16:35:04.089Z,7.36
2022-11-28T16:40:14.716Z,7.28
2022-11-28T16:45:21.367Z,7.61
2022-11-28T16:50:24.888Z,7.50
2022-11-28T16:55:30.982Z,7.36
2022-11-28T17:00:35.101Z,7.38
2022-11-28T17:05:37.902Z,7.36
2022-11-28T17:10:40.614Z,7.36
2022-11-28T17:15:43.401Z,7.41
2022-11-28T17:20:46.201Z,7.48
2022-11-28T17:25:49.001Z,7.29
2022-11-28T17:30:51.755Z,7.16
2022-11-28T17:35:58.012Z,7.17
2022-11-28T17:41:02.148Z,7.22
2022-11-28T17:46:05.155Z,7.14
2022-11-28T17:51:10.743Z,7.51
2022-11-28T17:56:13.819Z,7.37
2022-11-28T18:01:20.539Z,7.21
2022-11-28T18:06:23.868Z,7.02
2022-11-28T18:11:27.979Z,7.32
2022-11-28T18:16:31.008Z,7.24
2022-11-28T18:21:33.876Z,7.53
2022-11-28T18:26:37.834Z,7.62
2022-11-28T18:31:40.716Z,7.24
2022-11-28T18:36:43.692Z,6.94
2022-11-28T18:41:46.491Z,7.20
2022-11-28T18:46:49.297Z,7.30
2022-11-28T18:51:51.972Z,7.00
2022-11-28T18:56:54.797Z,6.81
2022-11-28T19:01:58.045Z,7.22
2022-11-28T19:07:01.633Z,7.06
2022-11-28T19:12:04.764Z,7.19
2022-11-28T19:17:12.178Z,6.87
2022-11-28T19:22:14.932Z,6.66
2022-11-28T19:27:17.955Z,6.97
2022-11-28T19:32:20.756Z,6.94
2022-11-28T19:37:23.762Z,7.12
2022-11-28T19:42:27.187Z,7.03
2022-11-28T19:47:30.389Z,6.54
2022-11-28T19:52:33.289Z,6.91
2022-11-28T19:57:37.564Z,7.20
2022-11-28T20:02:40.392Z,7.82
2022-11-28T20:07:43.620Z,7.62
2022-11-28T20:12:46.464Z,7.86
2022-11-28T20:17:49.738Z,7.69
2022-11-28T20:22:52.563Z,7.53
2022-11-28T20:27:55.419Z,7.96
2022-11-28T20:32:58.254Z,7.90
2022-11-28T20:38:01.019Z,7.88
2022-11-28T20:43:03.797Z,7.66
2022-11-28T20:48:07.111Z,7.27
2022-11-28T20:53:10.595Z,7.51
2022-11-28T20:58:13.324Z,7.66
2022-11-28T21:03:16.204Z,7.58
2022-11-28T21:08:19.036Z,7.92
2022-11-28T21:13:21.827Z,8.16
2022-11-28T21:18:24.524Z,8.12
2022-11-28T21:23:27.299Z,8.10
2022-11-28T21:28:30.043Z,8.19
2022-11-28T21:33:32.824Z,8.09
2022-11-28T21:38:35.708Z,7.86
2022-11-28T21:43:39.232Z,7.33
2022-11-28T21:48:42.434Z,7.55
2022-11-28T21:53:45.642Z,7.45
2022-11-28T21:58:48.844Z,7.14
2022-11-28T22:03:51.666Z,7.26
2022-11-28T22:08:55.019Z,7.40
2022-11-28T22:13:57.820Z,7.21
2022-11-28T22:19:01.246Z,6.92
2022-11-28T22:24:04.745Z,7.32
2022-11-28T22:29:07.614Z,7.36
2022-11-28T22:34:10.781Z,7.40
2022-11-28T22:39:13.636Z,6.79
2022-11-28T22:44:16.533Z,6.78
2022-11-28T22:49:19.447Z,6.93
2022-11-28T22:54:22.478Z,6.74
2022-11-28T22:59:25.674Z,6.89
2022-11-28T23:04:28.849Z,6.77
2022-11-28T23:09:31.765Z,6.25
2022-11-28T23:14:34.581Z,6.18
2022-11-28T23:19:37.284Z,6.02
2022-11-28T23:24:40.013Z,6.01
2022-11-28T23:29:43.123Z,5.90
2022-11-28T23:34:46.849Z,5.92
2022-11-28T23:39:49.542Z,6.16
2022-11-28T23:44:52.260Z,6.31
2022-11-28T23:49:55.002Z,6.30
2022-11-28T23:54:57.747Z,6.35
